Time;durP1;ratioP1;P1;durP2;ratioP2;P2;SDS_P1;SDS_P2;PMS_P1;PMS_P2;Temp;Humidity;BMP_temperature;BMP_pressure;BME280_temperature;BME280_humidity;BME280_pressure;Samples;Min_cycle;Max_cycle;Signal;HPM_P1;HPM_P2
2021/10/29 00:00:21;;;;;;;4.13;1.45;;;21.20;49.10;;;;;;4917410;29;20030;-61
2021/10/29 00:02:46;;;;;;;3.55;1.65;;;21.20;49.00;;;;;;4917382;29;20456;-62
2021/10/29 00:05:12;;;;;;;2.60;1.20;;;21.20;49.10;;;;;;4917349;29;20024;-62
2021/10/29 00:07:38;;;;;;;2.97;1.42;;;21.20;49.10;;;;;;4917267;29;20067;-62
2021/10/29 00:10:05;;;;;;;3.60;1.60;;;21.20;49.00;;;;;;4917287;29;20035;-62
2021/10/29 00:12:31;;;;;;;3.80;1.50;;;21.20;49.10;;;;;;4917522;29;20036;-62
2021/10/29 00:14:56;;;;;;;4.63;1.42;;;21.20;49.10;;;;;;4917219;29;20237;-61
2021/10/29 00:17:22;;;;;;;4.00;1.65;;;21.20;49.00;;;;;;4917135;29;20557;-62
2021/10/29 00:19:48;;;;;;;3.78;1.77;;;21.20;49.10;;;;;;4917105;29;20028;-62
2021/10/29 00:22:14;;;;;;;3.22;1.55;;;21.20;49.00;;;;;;4917173;29;20021;-62
2021/10/29 00:24:40;;;;;;;3.38;1.50;;;21.20;49.10;;;;;;4917175;29;20039;-62
2021/10/29 00:27:06;;;;;;;4.03;1.40;;;21.20;49.00;;;;;;4915738;29;20032;-62
2021/10/29 00:29:31;;;;;;;3.30;1.60;;;21.20;49.00;;;;;;4916968;29;20104;-62
2021/10/29 00:31:57;;;;;;;3.35;1.30;;;21.20;49.00;;;;;;4916950;29;20028;-62
2021/10/29 00:34:22;;;;;;;2.63;1.30;;;21.20;49.00;;;;;;4916883;29;20369;-62
2021/10/29 00:36:48;;;;;;;3.45;1.40;;;21.20;49.00;;;;;;4916916;29;20054;-62
2021/10/29 00:39:15;;;;;;;2.38;1.10;;;21.20;49.00;;;;;;4916715;29;20070;-62
2021/10/29 00:41:41;;;;;;;3.83;1.60;;;21.20;49.00;;;;;;4916871;29;20039;-62
2021/10/29 00:44:07;;;;;;;4.85;1.70;;;21.20;49.00;;;;;;4915301;29;20119;-62
2021/10/29 00:46:33;;;;;;;3.78;1.67;;;21.20;49.00;;;;;;4916776;29;20108;-62
2021/10/29 00:48:58;;;;;;;4.30;1.90;;;21.20;49.00;;;;;;4916919;29;20096;-62
2021/10/29 00:51:24;;;;;;;5.05;1.38;;;21.20;49.00;;;;;;4916863;29;20076;-62
2021/10/29 00:53:50;;;;;;;2.95;1.60;;;21.20;49.00;;;;;;4916871;29;20043;-62
2021/10/29 00:56:17;;;;;;;2.88;1.45;;;21.10;49.00;;;;;;4916763;29;20115;-62
2021/10/29 00:58:43;;;;;;;3.00;1.27;;;21.20;49.00;;;;;;4916780;29;20484;-62
2021/10/29 01:01:08;;;;;;;3.60;1.30;;;21.20;49.00;;;;;;4916922;29;20120;-62
2021/10/29 01:03:38;;;;;;;3.97;1.75;;;21.20;49.00;;;;;;4916638;29;20025;-62
2021/10/29 01:06:05;;;;;;;1.85;1.10;;;21.10;49.00;;;;;;4916880;29;20028;-61
2021/10/29 01:08:30;;;;;;;3.58;1.48;;;21.10;49.00;;;;;;4916776;29;20099;-62
2021/10/29 01:10:56;;;;;;;3.45;1.40;;;21.10;49.00;;;;;;4916678;29;20469;-62
2021/10/29 01:13:22;;;;;;;3.47;1.67;;;21.10;49.00;;;;;;4916573;29;20369;-62
2021/10/29 01:15:48;;;;;;;3.25;1.48;;;21.10;49.00;;;;;;4916828;29;20032;-62
2021/10/29 01:18:13;;;;;;;2.83;1.50;;;21.10;49.00;;;;;;4916584;29;20502;-62
2021/10/29 01:20:39;;;;;;;3.72;1.45;;;21.10;48.90;;;;;;4916569;29;20028;-61
2021/10/29 01:23:05;;;;;;;3.60;1.40;;;21.10;49.00;;;;;;4916566;29;20468;-62
2021/10/29 01:25:31;;;;;;;3.38;1.52;;;21.10;48.90;;;;;;4916459;29;20024;-62
2021/10/29 01:27:56;;;;;;;2.88;1.27;;;21.10;49.00;;;;;;4915474;29;20071;-62
2021/10/29 01:30:22;;;;;;;3.22;1.50;;;21.10;49.00;;;;;;4916508;29;20395;-60
2021/10/29 01:32:48;;;;;;;2.95;1.58;;;21.10;49.00;;;;;;4931053;29;20032;-61
2021/10/29 01:35:15;;;;;;;2.95;1.38;;;21.10;48.90;;;;;;4916405;29;20034;-62
2021/10/29 01:37:42;;;;;;;3.35;1.50;;;21.10;48.90;;;;;;4930784;29;20472;-61
2021/10/29 01:40:13;;;;;;;2.30;1.20;;;21.10;49.00;;;;;;4916392;29;20075;-61
2021/10/29 01:42:40;;;;;;;2.30;1.27;;;21.10;48.90;;;;;;4916667;29;20058;-61
2021/10/29 01:45:07;;;;;;;2.30;1.23;;;21.10;49.00;;;;;;4916437;29;20107;-61
2021/10/29 01:47:34;;;;;;;3.85;1.35;;;21.10;49.00;;;;;;4916401;29;20036;-61
2021/10/29 01:49:59;;;;;;;3.10;1.50;;;21.10;48.90;;;;;;4915145;29;20024;-61
2021/10/29 01:52:25;;;;;;;3.20;1.33;;;21.10;48.90;;;;;;4916329;29;20115;-61
2021/10/29 01:54:51;;;;;;;3.55;1.35;;;21.10;48.90;;;;;;4916424;29;20028;-61
2021/10/29 01:57:17;;;;;;;4.47;1.80;;;21.10;49.00;;;;;;4918844;29;20032;-61
2021/10/29 01:59:42;;;;;;;3.97;1.42;;;21.10;48.90;;;;;;4919685;29;20597;-61
2021/10/29 02:02:08;;;;;;;2.88;1.33;;;21.10;48.90;;;;;;4919525;29;20056;-61
2021/10/29 02:04:33;;;;;;;2.65;1.40;;;21.10;49.00;;;;;;4919467;29;20392;-61
2021/10/29 02:06:59;;;;;;;2.78;1.40;;;21.10;48.90;;;;;;4918160;29;20040;-61
2021/10/29 02:09:24;;;;;;;2.85;1.05;;;21.10;49.00;;;;;;4919374;29;20115;-61
2021/10/29 02:11:50;;;;;;;3.42;1.30;;;21.10;49.00;;;;;;4919277;29;20036;-61
2021/10/29 02:14:16;;;;;;;2.83;1.55;;;21.10;49.00;;;;;;4919578;29;20020;-61
2021/10/29 02:16:42;;;;;;;2.63;1.40;;;21.10;48.90;;;;;;4919364;29;20415;-61
2021/10/29 02:19:08;;;;;;;2.85;1.10;;;21.10;48.90;;;;;;4919326;29;20043;-61
2021/10/29 02:21:33;;;;;;;3.25;1.40;;;21.10;48.90;;;;;;4919235;29;20409;-62
2021/10/29 02:23:59;;;;;;;3.20;1.50;;;21.10;48.90;;;;;;4917899;29;20470;-60
2021/10/29 02:26:25;;;;;;;1.80;0.93;;;21.10;48.90;;;;;;4933625;29;20033;-61
2021/10/29 02:28:51;;;;;;;2.72;1.25;;;21.10;48.90;;;;;;4919380;29;20036;-61
2021/10/29 02:31:17;;;;;;;4.28;1.35;;;21.00;48.90;;;;;;4919060;29;20095;-61
2021/10/29 02:33:43;;;;;;;2.45;1.20;;;21.10;48.90;;;;;;4919267;29;20028;-61
2021/10/29 02:36:09;;;;;;;3.05;1.48;;;21.10;48.90;;;;;;4919249;29;20052;-61
2021/10/29 02:38:34;;;;;;;4.50;1.45;;;21.10;49.00;;;;;;4917503;29;20459;-62
2021/10/29 02:41:02;;;;;;;3.15;1.50;;;21.10;48.90;;;;;;4918873;29;20063;-61
2021/10/29 02:43:29;;;;;;;3.50;1.67;;;21.00;48.90;;;;;;4919005;29;20058;-61
2021/10/29 02:45:55;;;;;;;5.70;1.48;;;21.10;48.90;;;;;;4918691;29;20032;-61
2021/10/29 02:48:20;;;;;;;2.88;1.40;;;21.00;48.90;;;;;;4918791;29;20095;-61
2021/10/29 02:50:46;;;;;;;3.40;1.20;;;21.00;48.90;;;;;;4917415;29;20059;-61
2021/10/29 02:53:11;;;;;;;2.53;1.30;;;21.00;48.90;;;;;;4918565;29;20048;-62
2021/10/29 02:55:37;;;;;;;2.55;1.27;;;21.00;48.90;;;;;;4918615;29;20148;-61
2021/10/29 02:58:03;;;;;;;3.25;1.33;;;21.10;48.80;;;;;;4918583;29;20031;-60
2021/10/29 03:00:29;;;;;;;3.38;1.50;;;21.00;48.80;;;;;;4918778;29;20091;-61
2021/10/29 03:02:55;;;;;;;3.33;1.27;;;21.10;48.90;;;;;;4918499;29;20024;-61
2021/10/29 03:05:20;;;;;;;3.20;1.30;;;21.10;48.90;;;;;;4917185;29;20028;-61
2021/10/29 03:07:46;;;;;;;3.05;1.58;;;21.00;48.90;;;;;;4918066;29;20552;-61
2021/10/29 03:10:13;;;;;;;2.42;1.20;;;21.10;48.90;;;;;;4918368;29;20034;-61
2021/10/29 03:12:39;;;;;;;3.05;1.63;;;21.10;48.80;;;;;;4918354;29;20422;-61
2021/10/29 03:15:07;;;;;;;2.88;1.30;;;21.10;48.90;;;;;;4918275;29;20372;-61
2021/10/29 03:17:32;;;;;;;3.08;1.45;;;21.10;48.80;;;;;;4918228;29;20488;-61
2021/10/29 03:19:58;;;;;;;2.63;1.30;;;21.00;48.90;;;;;;4918185;29;20027;-61
2021/10/29 03:22:24;;;;;;;2.78;1.23;;;21.10;48.90;;;;;;4918119;29;20475;-61
2021/10/29 03:24:50;;;;;;;3.42;1.15;;;21.00;48.90;;;;;;4918407;29;20540;-61
2021/10/29 03:27:17;;;;;;;3.53;1.25;;;21.00;48.90;;;;;;4918256;29;20036;-61
2021/10/29 03:29:43;;;;;;;4.03;1.48;;;21.00;48.80;;;;;;4917988;29;20024;-61
2021/10/29 03:32:08;;;;;;;3.67;1.45;;;21.00;48.80;;;;;;4917971;29;20358;-61
2021/10/29 03:34:34;;;;;;;3.53;1.55;;;21.00;48.80;;;;;;4916681;29;20083;-61
2021/10/29 03:37:02;;;;;;;3.17;1.40;;;21.00;48.80;;;;;;4917774;29;20031;-61
2021/10/29 03:39:31;;;;;;;3.03;1.27;;;21.00;48.80;;;;;;4897705;29;20043;-61
2021/10/29 03:42:03;;;;;;;3.08;1.45;;;21.00;48.90;;;;;;4898967;29;20028;-61
2021/10/29 03:47:14;;;;;;;2.83;1.23;;;21.00;48.80;;;;;;4898753;29;20088;-61
2021/10/29 03:49:51;;;;;;;3.58;1.38;;;21.00;48.80;;;;;;4898781;29;20111;-61
2021/10/29 03:52:27;;;;;;;3.25;1.58;;;21.00;48.80;;;;;;4898754;29;20032;-61
2021/10/29 03:54:56;;;;;;;2.20;1.10;;;21.00;48.80;;;;;;4899090;29;20048;-61
2021/10/29 03:57:26;;;;;;;3.85;1.42;;;21.00;48.80;;;;;;4898772;29;20385;-61
2021/10/29 03:59:53;;;;;;;2.63;1.40;;;21.00;48.80;;;;;;4898578;29;20485;-61
2021/10/29 04:02:20;;;;;;;2.92;1.40;;;21.00;48.80;;;;;;4898446;29;20029;-62
2021/10/29 04:04:45;;;;;;;2.45;1.15;;;21.00;48.80;;;;;;4898510;29;20092;-61
2021/10/29 04:07:11;;;;;;;3.83;1.30;;;21.00;48.80;;;;;;4898427;29;20076;-61
2021/10/29 04:09:37;;;;;;;2.90;1.30;;;21.00;48.80;;;;;;4898534;29;20503;-61
2021/10/29 04:12:03;;;;;;;2.40;1.23;;;21.00;48.80;;;;;;4898708;29;20036;-61
2021/10/29 04:14:29;;;;;;;2.70;1.05;;;21.10;48.80;;;;;;4898218;29;20036;-61
2021/10/29 04:16:55;;;;;;;3.47;1.50;;;21.00;48.80;;;;;;4898339;29;20421;-61
2021/10/29 04:19:21;;;;;;;1.90;1.10;;;21.00;48.80;;;;;;4897780;29;20461;-61
2021/10/29 04:21:46;;;;;;;2.40;1.30;;;21.10;48.80;;;;;;4896953;29;20036;-61
2021/10/29 04:24:12;;;;;;;3.05;1.27;;;21.00;48.70;;;;;;4898224;29;20111;-61
2021/10/29 04:26:38;;;;;;;4.88;1.45;;;21.10;48.60;;;;;;4898106;29;20072;-61
2021/10/29 04:29:13;;;;;;;2.33;1.20;;;21.10;48.70;;;;;;4898077;29;20461;-61
2021/10/29 04:31:47;;;;;;;3.67;1.25;;;21.10;48.70;;;;;;4898073;29;20397;-61
2021/10/29 04:34:13;;;;;;;2.67;1.10;;;21.10;48.60;;;;;;4898035;29;20031;-61
2021/10/29 04:36:39;;;;;;;2.92;1.30;;;21.10;48.50;;;;;;4897996;29;20032;-61
2021/10/29 04:39:11;;;;;;;3.22;1.45;;;21.20;48.60;;;;;;4914137;29;20084;-62
2021/10/29 04:41:37;;;;;;;3.85;1.48;;;21.20;48.60;;;;;;4916844;29;20028;-61
2021/10/29 04:44:03;;;;;;;3.75;1.30;;;21.20;48.60;;;;;;4916860;29;20053;-61
2021/10/29 04:46:30;;;;;;;3.28;1.35;;;21.20;48.60;;;;;;4916649;29;20460;-61
2021/10/29 04:48:56;;;;;;;2.65;1.25;;;21.20;48.50;;;;;;4916729;29;20467;-61
2021/10/29 04:51:21;;;;;;;3.08;1.20;;;21.20;48.60;;;;;;4916761;29;20060;-61
2021/10/29 04:53:47;;;;;;;3.00;1.30;;;21.20;48.50;;;;;;4916906;29;20384;-61
2021/10/29 04:56:12;;;;;;;2.35;1.23;;;21.20;48.50;;;;;;4916656;29;20059;-61
2021/10/29 04:58:38;;;;;;;2.40;1.20;;;21.20;48.50;;;;;;4916583;29;20119;-61
2021/10/29 05:01:04;;;;;;;2.53;1.35;;;21.20;48.50;;;;;;4916868;29;20028;-61
2021/10/29 05:03:29;;;;;;;3.00;1.17;;;21.30;48.60;;;;;;4916730;29;20028;-61
2021/10/29 05:05:55;;;;;;;1.98;1.13;;;21.20;48.50;;;;;;4916822;29;20068;-61
2021/10/29 05:08:20;;;;;;;2.92;1.17;;;21.30;48.40;;;;;;4916582;29;20059;-62
2021/10/29 05:10:46;;;;;;;3.05;1.40;;;21.20;48.40;;;;;;4916499;29;20099;-61
2021/10/29 05:13:11;;;;;;;2.95;1.10;;;21.30;48.50;;;;;;4916516;29;20123;-62
2021/10/29 05:15:37;;;;;;;2.72;1.17;;;21.30;48.50;;;;;;4916583;29;20028;-61
2021/10/29 05:18:03;;;;;;;2.67;1.15;;;21.30;48.50;;;;;;4915334;29;20031;-61
2021/10/29 05:20:28;;;;;;;3.38;1.50;;;21.30;48.40;;;;;;4916272;29;20037;-61
2021/10/29 05:22:54;;;;;;;2.78;1.17;;;21.30;48.40;;;;;;4915155;29;20413;-61
2021/10/29 05:25:19;;;;;;;3.33;1.35;;;21.30;48.50;;;;;;4916375;29;20028;-61
2021/10/29 05:27:45;;;;;;;2.40;1.17;;;21.30;48.40;;;;;;4916370;29;20036;-61
2021/10/29 05:30:11;;;;;;;2.45;1.20;;;21.30;48.40;;;;;;4916467;29;20024;-61
2021/10/29 05:32:38;;;;;;;3.13;1.30;;;21.30;48.40;;;;;;4919758;29;20552;-61
2021/10/29 05:35:05;;;;;;;2.97;1.65;;;21.30;48.40;;;;;;4919990;29;20373;-61
2021/10/29 05:37:32;;;;;;;2.22;1.10;;;21.30;48.40;;;;;;4919774;29;20055;-61
2021/10/29 05:39:58;;;;;;;2.35;1.23;;;21.30;48.40;;;;;;4919982;29;20038;-61
2021/10/29 05:42:25;;;;;;;4.78;1.45;;;21.30;48.40;;;;;;4919957;29;20110;-61
2021/10/29 05:44:51;;;;;;;3.28;1.38;;;21.30;48.40;;;;;;4919957;29;20024;-61
2021/10/29 05:47:17;;;;;;;3.25;1.40;;;21.30;48.40;;;;;;4919779;29;20032;-61
2021/10/29 05:49:43;;;;;;;1.98;1.02;;;21.30;48.40;;;;;;4919958;29;20031;-61
2021/10/29 05:52:16;;;;;;;3.35;1.25;;;21.30;48.40;;;;;;4919733;29;20024;-61
2021/10/29 05:57:36;;;;;;;;;;;21.30;48.40;;;;;;4919800;29;20383;-61
2021/10/29 06:00:03;;;;;;;3.15;1.20;;;21.30;48.40;;;;;;4919566;29;19994;-61
2021/10/29 06:02:29;;;;;;;3.10;1.50;;;21.40;48.40;;;;;;4919478;29;20036;-61
2021/10/29 06:04:54;;;;;;;2.05;1.10;;;21.40;48.40;;;;;;4919313;29;20111;-60
2021/10/29 06:07:20;;;;;;;3.47;1.45;;;21.30;48.40;;;;;;4919391;29;20051;-61
2021/10/29 06:09:45;;;;;;;3.50;1.70;;;21.30;48.40;;;;;;4922006;29;20465;-61
2021/10/29 06:12:11;;;;;;;3.35;1.33;;;21.30;48.40;;;;;;4919877;29;20136;-61
2021/10/29 06:14:38;;;;;;;3.20;1.35;;;21.40;48.40;;;;;;4919454;29;20119;-61
2021/10/29 06:17:06;;;;;;;2.28;1.13;;;21.40;48.40;;;;;;4933739;29;20056;-61
2021/10/29 06:19:31;;;;;;;3.03;1.10;;;21.40;48.40;;;;;;4919182;29;20056;-61
2021/10/29 06:22:08;;;;;;;3.58;1.40;;;21.40;48.40;;;;;;4919158;29;20103;-61
2021/10/29 06:24:35;;;;;;;3.45;1.73;;;21.40;48.40;;;;;;4919109;29;20043;-61
2021/10/29 06:27:05;;;;;;;3.40;1.70;;;21.40;48.30;;;;;;4919169;29;20020;-61
2021/10/29 06:29:32;;;;;;;3.78;1.30;;;21.40;48.40;;;;;;4917979;29;20119;-61
2021/10/29 06:31:58;;;;;;;3.17;1.33;;;21.40;48.40;;;;;;4919186;29;20021;-60
2021/10/29 06:34:23;;;;;;;3.55;1.42;;;21.40;48.40;;;;;;4917727;29;20052;-61
2021/10/29 06:36:49;;;;;;;2.83;1.10;;;21.40;48.40;;;;;;4919289;29;20024;-61
2021/10/29 06:39:16;;;;;;;4.63;1.45;;;21.50;48.30;;;;;;4918623;29;20493;-61
2021/10/29 06:41:42;;;;;;;3.10;1.20;;;21.50;48.30;;;;;;4918367;29;20028;-61
2021/10/29 06:49:21;;;;;;;3.55;1.45;;;21.50;48.30;;;;;;4918715;29;20030;-61
2021/10/29 06:52:08;;;;;;;2.45;1.20;;;21.40;48.30;;;;;;4918696;29;20048;-61
2021/10/29 07:00:18;;;;;;;2.65;1.08;;;21.50;48.40;;;;;;4918621;29;20096;-61
2021/10/29 07:41:03;;;;;;;4.00;1.33;;;21.50;48.30;;;;;;4917798;29;20031;-61
2021/10/29 07:43:51;;;;;;;2.63;1.30;;;21.50;48.20;;;;;;4917620;29;20039;-61
2021/10/29 07:46:14;;;;;;;3.78;1.33;;;21.60;48.20;;;;;;4917151;29;20035;-61
2021/10/29 07:48:41;;;;;;;2.65;1.20;;;21.50;48.20;;;;;;4917501;29;20042;-61
2021/10/29 07:51:06;;;;;;;2.67;1.23;;;21.60;48.20;;;;;;4916173;29;20464;-61
2021/10/29 07:53:34;;;;;;;2.15;1.15;;;21.60;48.20;;;;;;4916894;29;20416;-61
2021/10/29 07:56:01;;;;;;;3.58;1.38;;;21.50;48.20;;;;;;4917626;29;20482;-61
2021/10/29 07:58:27;;;;;;;2.97;1.35;;;21.50;48.20;;;;;;4917622;29;20032;-61
2021/10/29 08:00:53;;;;;;;3.03;1.48;;;21.60;48.20;;;;;;4917316;29;20502;-61
2021/10/29 08:03:19;;;;;;;2.75;1.10;;;21.60;48.10;;;;;;4917333;29;20396;-60
2021/10/29 08:05:46;;;;;;;2.92;1.40;;;21.60;48.10;;;;;;4917117;29;20506;-60
2021/10/29 08:08:14;;;;;;;2.75;1.30;;;21.60;48.10;;;;;;4917258;29;20082;-61
2021/10/29 08:10:40;;;;;;;3.70;1.40;;;21.60;48.10;;;;;;4917530;29;20020;-61
2021/10/29 08:13:05;;;;;;;2.22;1.20;;;21.60;48.10;;;;;;4917195;29;20028;-61
2021/10/29 08:15:34;;;;;;;2.58;1.30;;;21.60;48.10;;;;;;4917192;29;20035;-61
2021/10/29 08:18:00;;;;;;;2.47;1.00;;;21.60;48.00;;;;;;4917008;29;20083;-61
2021/10/29 08:20:26;;;;;;;2.67;1.23;;;21.60;48.10;;;;;;4917209;29;20028;-61
2021/10/29 08:22:52;;;;;;;5.10;1.30;;;21.60;48.10;;;;;;4916999;29;20099;-62
2021/10/29 08:25:17;;;;;;;3.40;1.30;;;21.60;48.00;;;;;;4916908;29;20028;-61
2021/10/29 08:27:43;;;;;;;4.28;1.38;;;21.70;48.10;;;;;;4916753;29;20131;-61
2021/10/29 08:30:09;;;;;;;3.10;0.90;;;21.60;48.10;;;;;;4916931;29;20092;-61
2021/10/29 08:32:37;;;;;;;2.90;1.17;;;21.70;48.10;;;;;;4916849;29;20476;-61
2021/10/29 08:35:03;;;;;;;3.65;1.20;;;21.70;48.10;;;;;;4916691;29;20036;-61
2021/10/29 08:37:31;;;;;;;3.20;1.20;;;21.70;48.00;;;;;;4916557;29;20044;-60
2021/10/29 08:39:58;;;;;;;3.45;1.40;;;21.70;48.00;;;;;;4916808;29;20112;-61
2021/10/29 08:42:23;;;;;;;2.35;1.25;;;21.70;48.00;;;;;;4916769;29;20032;-61
2021/10/29 08:44:50;;;;;;;3.33;1.27;;;21.70;48.00;;;;;;4916982;29;20029;-60
2021/10/29 08:47:21;;;;;;;2.05;1.00;;;21.70;48.00;;;;;;4916686;29;20088;-60
2021/10/29 08:49:47;;;;;;;2.67;1.30;;;21.70;48.10;;;;;;4916971;29;20031;-60
2021/10/29 08:52:19;;;;;;;2.67;1.27;;;21.70;48.10;;;;;;4916925;29;20464;-60
2021/10/29 08:54:45;;;;;;;3.38;1.20;;;21.70;48.00;;;;;;4917036;29;20029;-60
2021/10/29 08:57:11;;;;;;;3.10;1.10;;;21.70;48.00;;;;;;4916716;29;20024;-61
2021/10/29 08:59:40;;;;;;;4.57;1.20;;;21.70;48.00;;;;;;4916538;29;20024;-61
2021/10/29 09:33:59;;;;;;;2.78;0.88;;;21.90;47.80;;;;;;4920255;29;20043;-61
2021/10/29 09:36:35;;;;;;;2.50;1.30;;;21.90;47.70;;;;;;4919817;29;20069;-62
2021/10/29 09:39:14;;;;;;;1.52;1.00;;;22.00;47.70;;;;;;4919720;29;20051;-60
2021/10/29 09:41:40;;;;;;;3.05;1.17;;;22.00;47.70;;;;;;4919826;29;20091;-60
2021/10/29 09:44:10;;;;;;;2.08;1.00;;;22.00;47.70;;;;;;4918381;29;20020;-60
2021/10/29 09:46:53;;;;;;;2.05;1.05;;;21.90;47.60;;;;;;4919764;29;20039;-60
2021/10/29 09:49:32;;;;;;;2.53;1.00;;;21.90;47.70;;;;;;4919702;29;20111;-60
2021/10/29 09:55:00;;;;;;;2.58;1.20;;;22.00;47.60;;;;;;4919931;29;20033;-60
2021/10/29 09:57:27;;;;;;;1.77;0.88;;;22.00;47.60;;;;;;4919607;29;20115;-61
2021/10/29 09:59:57;;;;;;;3.08;1.05;;;22.00;47.50;;;;;;4934163;29;20063;-61
2021/10/29 10:02:25;;;;;;;3.13;1.42;;;22.00;47.50;;;;;;4919160;29;20028;-61
2021/10/29 10:04:52;;;;;;;2.35;1.40;;;22.00;47.50;;;;;;4933713;29;20032;-61
2021/10/29 10:07:23;;;;;;;2.50;1.13;;;22.00;47.50;;;;;;4918941;29;20040;-61
2021/10/29 10:09:51;;;;;;;1.92;1.05;;;22.00;47.50;;;;;;4919380;29;20030;-61
2021/10/29 10:12:21;;;;;;;2.42;1.13;;;22.00;47.50;;;;;;4919260;29;20028;-61
2021/10/29 10:14:51;;;;;;;2.83;1.10;;;22.00;47.40;;;;;;4919207;29;20024;-61
2021/10/29 10:17:18;;;;;;;2.60;1.15;;;22.00;47.40;;;;;;4918298;29;20059;-60
2021/10/29 10:19:44;;;;;;;2.45;1.08;;;22.00;47.40;;;;;;4919267;29;20024;-61
2021/10/29 10:22:14;;;;;;;2.60;0.93;;;22.00;47.40;;;;;;4919170;29;20488;-61
2021/10/29 10:24:41;;;;;;;2.38;1.08;;;22.00;47.40;;;;;;4919551;29;20024;-61
2021/10/29 10:45:00;;;;;;;1.63;0.85;;;22.10;47.40;;;;;;4897047;29;20499;-61
2021/10/29 10:46:56;;;;;;;2.95;1.30;;;22.00;47.30;;;;;;4911585;29;20056;-61
2021/10/29 10:49:57;;;;;;;2.65;1.20;;;22.10;47.30;;;;;;4918607;29;20084;-60
2021/10/29 10:52:33;;;;;;;2.00;0.88;;;22.00;47.40;;;;;;4918871;29;20039;-61
2021/10/29 10:55:12;;;;;;;2.33;1.05;;;22.00;47.40;;;;;;4918427;29;20465;-61
2021/10/29 11:05:51;;;;;;;3.13;1.23;;;22.10;47.30;;;;;;4918598;29;20024;-60
2021/10/29 11:11:13;;;;;;;4.53;1.30;;;22.10;47.30;;;;;;4918313;29;20107;-60
2021/10/29 11:13:41;;;;;;;2.80;1.10;;;22.10;47.20;;;;;;4918306;29;20028;-60
2021/10/29 11:16:07;;;;;;;2.25;1.02;;;22.20;47.20;;;;;;4918424;29;20172;-60
2021/10/29 11:18:39;;;;;;;2.15;1.20;;;22.10;47.20;;;;;;4918221;29;20511;-61
2021/10/29 11:21:20;;;;;;;2.15;0.93;;;22.10;47.20;;;;;;4918039;29;20488;-61
2021/10/29 11:23:55;;;;;;;1.58;0.98;;;22.20;47.20;;;;;;4918453;29;20040;-61
2021/10/29 11:26:30;;;;;;;2.03;1.00;;;22.10;47.30;;;;;;4916748;29;20036;-60
2021/10/29 11:28:58;;;;;;;2.22;1.10;;;22.10;47.20;;;;;;4918134;29;20060;-61
2021/10/29 11:31:42;;;;;;;3.63;1.20;;;22.20;47.10;;;;;;4918213;29;20455;-61
2021/10/29 11:34:12;;;;;;;1.45;0.68;;;22.20;47.10;;;;;;4918276;29;20031;-61
2021/10/29 11:36:40;;;;;;;3.05;1.30;;;22.30;47.00;;;;;;4917757;29;20485;-61
2021/10/29 11:39:09;;;;;;;2.05;1.10;;;22.30;47.00;;;;;;4932080;29;20131;-61
2021/10/29 11:41:37;;;;;;;2.28;1.02;;;22.30;47.00;;;;;;4917965;29;20035;-60
2021/10/29 11:44:04;;;;;;;2.88;1.10;;;22.30;47.00;;;;;;4916724;29;20036;-61
2021/10/29 11:46:32;;;;;;;3.08;1.38;;;22.20;47.00;;;;;;4917470;29;20032;-61
2021/10/29 11:49:09;;;;;;;2.60;1.20;;;22.20;47.00;;;;;;4917612;29;20040;-61
2021/10/29 11:51:36;;;;;;;2.60;1.27;;;22.20;47.10;;;;;;4917479;29;20103;-61
2021/10/29 11:54:14;;;;;;;1.60;0.90;;;22.20;47.10;;;;;;4917362;29;20031;-61
2021/10/29 11:59:25;;;;;;;2.35;1.00;;;22.20;47.30;;;;;;4917519;29;20048;-61
2021/10/29 12:07:20;;;;;;;2.70;1.30;;;22.10;47.40;;;;;;4917392;29;20407;-62
2021/10/29 12:09:48;;;;;;;1.83;0.90;;;22.10;47.40;;;;;;4918075;29;20020;-61
2021/10/29 12:12:18;;;;;;;1.63;0.82;;;22.10;47.50;;;;;;4917375;29;20039;-61
2021/10/29 12:14:47;;;;;;;1.73;1.10;;;22.00;47.50;;;;;;4917614;29;20023;-61
2021/10/29 12:17:39;;;;;;;2.38;0.98;;;22.00;47.50;;;;;;4917303;29;20476;-61
2021/10/29 12:20:07;;;;;;;2.95;1.05;;;22.00;47.50;;;;;;4917513;29;20036;-61
2021/10/29 12:22:49;;;;;;;1.73;0.95;;;22.00;47.60;;;;;;4917112;29;20600;-62
2021/10/29 12:25:33;;;;;;;1.52;0.88;;;22.00;47.60;;;;;;4917220;29;20564;-61
2021/10/29 12:28:04;;;;;;;4.50;1.17;;;22.00;47.60;;;;;;4917016;29;20047;-61
2021/10/29 12:30:54;;;;;;;1.50;0.70;;;22.00;47.60;;;;;;4917008;29;20111;-61
2021/10/29 12:39:17;;;;;;;2.13;1.10;;;22.00;47.60;;;;;;4916884;29;20090;-61
2021/10/29 13:01:33;;;;;;;2.97;1.00;;;22.00;47.60;;;;;;4916611;29;20404;-61
2021/10/29 13:04:12;;;;;;;3.33;1.20;;;22.00;47.60;;;;;;4916583;29;20060;-61
2021/10/29 13:06:52;;;;;;;2.60;0.80;;;22.00;47.70;;;;;;4916473;29;20067;-60
2021/10/29 13:09:22;;;;;;;2.15;0.98;;;22.00;47.60;;;;;;4915300;29;20543;-60
2021/10/29 13:12:03;;;;;;;1.92;1.00;;;22.00;47.60;;;;;;4916398;29;20111;-61
2021/10/29 13:14:33;;;;;;;2.05;1.00;;;22.00;47.70;;;;;;4916469;29;20465;-60
2021/10/29 13:17:01;;;;;;;1.02;0.65;;;22.00;47.70;;;;;;4916602;29;20111;-61
2021/10/29 13:19:49;;;;;;;2.97;1.00;;;22.00;47.70;;;;;;4916424;29;20499;-61
2021/10/29 13:35:30;;;;;;;2.30;0.95;;;22.00;47.70;;;;;;4916515;29;20502;-60
2021/10/29 13:59:34;;;;;;;2.38;0.95;;;22.00;47.70;;;;;;4919467;29;20494;-60
2021/10/29 14:29:17;;;;;;;2.42;1.00;;;22.00;47.90;;;;;;4919291;29;20095;-60
2021/10/29 14:31:55;;;;;;;2.50;1.10;;;21.90;47.90;;;;;;4917756;29;20040;-61
2021/10/29 14:34:25;;;;;;;2.17;0.70;;;21.90;47.90;;;;;;4919134;29;20445;-60
2021/10/29 14:37:00;;;;;;;1.80;0.80;;;21.90;47.90;;;;;;4919018;29;20034;-61
2021/10/29 14:39:32;;;;;;;2.30;0.88;;;21.90;47.90;;;;;;4917802;29;20052;-61
2021/10/29 14:42:16;;;;;;;2.03;1.00;;;21.90;47.90;;;;;;4919115;29;20396;-60
2021/10/29 14:44:57;;;;;;;2.17;0.90;;;21.90;47.90;;;;;;4918914;29;20084;-61
2021/10/29 14:49:59;;;;;;;2.55;0.88;;;22.00;47.90;;;;;;4918789;29;20028;-61
2021/10/29 15:29:41;;;;;;;2.00;0.80;;;22.00;48.00;;;;;;4918071;29;20036;-61
2021/10/29 15:49:58;;;;;;;2.58;1.00;;;21.90;48.10;;;;;;4902169;29;20061;-60
2021/10/29 15:51:55;;;;;;;1.63;1.10;;;21.90;48.10;;;;;;4908717;29;20076;-61
2021/10/29 15:54:21;;;;;;;0.88;0.63;;;21.90;48.10;;;;;;4917300;29;20027;-61
2021/10/29 15:57:00;;;;;;;2.25;0.82;;;21.90;48.10;;;;;;4917608;29;20083;-61
2021/10/29 16:02:09;;;;;;;1.98;1.05;;;22.00;48.10;;;;;;4917572;29;20024;-61
2021/10/29 16:18:15;;;;;;;2.33;1.00;;;21.90;48.20;;;;;;4917152;29;20054;-61
2021/10/29 16:20:41;;;;;;;2.05;0.88;;;21.90;48.10;;;;;;4917056;29;20524;-61
2021/10/29 16:23:06;;;;;;;2.33;1.00;;;21.90;48.10;;;;;;4917362;29;20479;-60
2021/10/29 16:25:35;;;;;;;2.20;1.10;;;22.00;48.20;;;;;;4916880;29;20024;-60
2021/10/29 16:28:03;;;;;;;4.97;1.10;;;21.90;48.20;;;;;;4916870;29;20097;-61
2021/10/29 16:30:31;;;;;;;2.83;1.10;;;21.90;48.20;;;;;;4917187;29;20032;-61
2021/10/29 16:35:34;;;;;;;2.03;1.08;;;21.90;48.10;;;;;;4917168;29;20476;-60
2021/10/29 16:38:07;;;;;;;2.42;1.00;;;21.90;48.10;;;;;;4915547;29;20397;-61
2021/10/29 16:40:34;;;;;;;1.88;0.90;;;21.90;48.20;;;;;;4916719;29;20037;-61
2021/10/29 16:43:00;;;;;;;2.17;0.95;;;21.90;48.20;;;;;;4916730;29;20039;-61
2021/10/29 16:45:27;;;;;;;2.75;1.13;;;21.90;48.10;;;;;;4916643;29;20021;-61
2021/10/29 16:47:53;;;;;;;2.65;0.95;;;21.90;48.20;;;;;;4916573;29;20032;-61
2021/10/29 16:50:20;;;;;;;1.50;0.88;;;21.90;48.20;;;;;;4916558;29;20035;-61
2021/10/29 16:52:47;;;;;;;1.42;0.80;;;21.90;48.20;;;;;;4916901;29;20028;-61
2021/10/29 16:55:13;;;;;;;2.25;1.10;;;21.90;48.20;;;;;;4916513;29;20488;-61
2021/10/29 16:57:39;;;;;;;1.98;0.85;;;21.90;48.20;;;;;;4916557;29;20076;-61
2021/10/29 17:00:07;;;;;;;1.95;0.95;;;21.90;48.20;;;;;;4916662;29;20051;-61
2021/10/29 17:02:33;;;;;;;2.38;1.00;;;21.90;48.20;;;;;;4916496;29;20036;-60
2021/10/29 17:04:58;;;;;;;2.33;1.10;;;21.90;48.20;;;;;;4916826;29;20039;-61
2021/10/29 17:07:24;;;;;;;1.52;0.90;;;21.90;48.20;;;;;;4916377;29;20083;-60
2021/10/29 17:09:51;;;;;;;1.90;0.80;;;21.90;48.20;;;;;;4916770;29;20042;-61
2021/10/29 17:12:17;;;;;;;2.72;1.10;;;21.90;48.20;;;;;;4915329;29;20388;-61
2021/10/29 17:14:42;;;;;;;3.38;1.45;;;21.90;48.20;;;;;;4916503;29;20092;-62
2021/10/29 17:17:08;;;;;;;2.88;1.15;;;21.90;48.20;;;;;;4916486;29;20420;-62
2021/10/29 17:19:34;;;;;;;2.45;1.10;;;21.90;48.20;;;;;;4916541;29;20024;-61
2021/10/29 17:22:00;;;;;;;2.58;1.00;;;21.90;48.20;;;;;;4916306;29;20135;-62
2021/10/29 17:24:25;;;;;;;2.20;1.08;;;21.90;48.20;;;;;;4916556;29;20079;-61
2021/10/29 17:26:51;;;;;;;3.80;1.13;;;21.90;48.20;;;;;;4918550;29;20036;-61
2021/10/29 17:29:17;;;;;;;2.67;1.02;;;21.90;48.20;;;;;;4919083;29;20538;-61
2021/10/29 17:31:43;;;;;;;2.50;1.15;;;21.90;48.20;;;;;;4920225;29;20032;-62
2021/10/29 17:34:10;;;;;;;1.92;1.00;;;21.90;48.20;;;;;;4919924;29;20456;-61
2021/10/29 17:36:36;;;;;;;3.03;1.33;;;22.00;48.20;;;;;;4920111;29;20088;-61
2021/10/29 17:39:03;;;;;;;2.15;0.90;;;21.90;48.20;;;;;;4919739;29;20464;-62
2021/10/29 17:41:28;;;;;;;2.22;1.20;;;21.90;48.20;;;;;;4919919;29;20024;-61